Time;durP1;ratioP1;P1;durP2;ratioP2;P2;SDS_P1;SDS_P2;PMS_P1;PMS_P2;Temp;Humidity;BMP_temperature;BMP_pressure;BME280_temperature;BME280_humidity;BME280_pressure;Samples;Min_cycle;Max_cycle;Signal;HPM_P1;HPM_P2
2022/05/14 00:00:51;;;;;;;26.73;3.60;;;12.70;99.90;;;;;;5026818;28;20084;-65
2022/05/14 00:03:17;;;;;;;25.65;3.78;;;12.70;99.90;;;;;;4993094;28;20079;-65
2022/05/14 00:05:44;;;;;;;20.58;3.90;;;12.70;99.90;;;;;;5009067;28;20022;-65
2022/05/14 00:08:11;;;;;;;19.20;3.63;;;12.70;99.90;;;;;;5026950;28;20026;-64
2022/05/14 00:13:03;;;;;;;30.27;3.88;;;12.70;99.90;;;;;;5026824;28;20018;-64
2022/05/14 00:13:24;;;;;;;25.80;3.80;;;12.70;99.90;;;;;;5011975;28;20242;-64
2022/05/14 00:15:50;;;;;;;24.92;3.97;;;12.70;99.90;;;;;;5025741;28;20188;-64
2022/05/14 00:18:17;;;;;;;19.60;4.25;;;12.70;99.90;;;;;;5026812;28;20108;-64
2022/05/14 00:20:42;;;;;;;26.98;3.97;;;12.60;99.90;;;;;;5024182;28;20034;-64
2022/05/14 00:23:08;;;;;;;27.45;4.10;;;12.60;99.90;;;;;;5025624;28;20256;-64
2022/05/14 00:25:36;;;;;;;22.00;4.40;;;12.60;99.90;;;;;;5027014;28;20029;-64
2022/05/14 00:28:03;;;;;;;23.15;4.15;;;12.60;99.90;;;;;;5026766;28;20025;-65
2022/05/14 00:30:31;;;;;;;22.15;3.67;;;12.60;99.90;;;;;;5026910;28;20018;-65
2022/05/14 00:32:57;;;;;;;24.15;4.22;;;12.60;99.90;;;;;;5026361;28;20032;-65
2022/05/14 00:35:23;;;;;;;20.67;3.63;;;12.60;99.90;;;;;;5028364;28;20017;-64
2022/05/14 00:37:49;;;;;;;19.83;3.63;;;12.60;99.90;;;;;;5029709;28;20093;-65
2022/05/14 00:40:20;;;;;;;29.25;3.92;;;12.60;99.90;;;;;;5029354;28;20025;-65
2022/05/14 00:42:46;;;;;;;27.77;4.20;;;12.60;99.90;;;;;;5030506;28;20056;-65
2022/05/14 00:45:14;;;;;;;28.55;5.07;;;12.60;99.90;;;;;;5036684;28;20034;-65
2022/05/14 00:47:42;;;;;;;22.92;4.95;;;12.60;99.90;;;;;;5038949;28;20052;-64
2022/05/14 00:50:24;;;;;;;23.52;4.45;;;12.60;99.90;;;;;;5039986;28;20010;-65
2022/05/14 00:52:53;;;;;;;23.67;4.10;;;12.60;99.90;;;;;;5039649;28;20048;-65
2022/05/14 00:55:19;;;;;;;33.80;4.78;;;12.50;99.90;;;;;;5040074;28;20046;-66
2022/05/14 00:57:46;;;;;;;21.63;4.25;;;12.50;99.90;;;;;;5039650;28;20050;-65
2022/05/14 01:00:17;;;;;;;28.98;4.03;;;12.60;99.90;;;;;;5039850;28;20041;-64
2022/05/14 01:02:43;;;;;;;22.52;3.65;;;12.50;99.90;;;;;;5039911;28;20038;-65
2022/05/14 01:05:12;;;;;;;26.52;4.10;;;12.50;99.90;;;;;;5035005;28;20073;-66
2022/05/14 01:07:39;;;;;;;32.28;5.43;;;12.50;99.90;;;;;;5030357;28;20064;-65
2022/05/14 01:10:09;;;;;;;31.77;4.65;;;12.50;99.90;;;;;;5027429;28;20056;-65
2022/05/14 01:12:36;;;;;;;21.15;4.10;;;12.50;99.90;;;;;;5027757;28;20091;-65
2022/05/14 01:15:22;;;;;;;25.42;4.20;;;12.50;99.90;;;;;;5026386;28;20217;-65
2022/05/14 01:17:47;;;;;;;25.50;4.45;;;12.40;99.90;;;;;;5025695;28;20025;-65
2022/05/14 01:20:15;;;;;;;29.58;4.80;;;12.50;99.90;;;;;;5023433;28;20018;-65
2022/05/14 01:22:56;;;;;;;30.75;4.70;;;12.40;99.90;;;;;;5024827;28;20036;-66
2022/05/14 01:28:29;;;;;;;33.05;5.18;;;12.40;99.90;;;;;;5011120;28;20205;-62
2022/05/14 01:30:58;;;;;;;19.90;3.97;;;12.40;99.90;;;;;;5025383;28;20032;-65
2022/05/14 01:33:24;;;;;;;25.67;4.25;;;12.40;99.90;;;;;;5024539;28;20033;-65
2022/05/14 01:35:50;;;;;;;20.23;4.43;;;12.40;99.90;;;;;;5024422;28;20022;-65
2022/05/14 01:38:17;;;;;;;23.30;4.10;;;12.40;99.90;;;;;;5024346;28;20033;-64
2022/05/14 01:40:43;;;;;;;24.52;3.60;;;12.40;99.90;;;;;;5023376;28;20022;-65
2022/05/14 01:43:09;;;;;;;24.10;4.18;;;12.40;99.90;;;;;;5023619;28;20213;-65
2022/05/14 01:45:36;;;;;;;30.75;4.32;;;12.40;99.90;;;;;;5024058;28;20241;-65
2022/05/14 01:48:02;;;;;;;32.83;4.90;;;12.40;99.90;;;;;;5024874;28;20076;-63
2022/05/14 01:50:28;;;;;;;26.63;3.97;;;12.40;99.90;;;;;;5024137;28;20025;-65
2022/05/14 01:52:54;;;;;;;29.60;4.28;;;12.60;99.90;;;;;;5023759;28;20079;-63
2022/05/14 01:55:20;;;;;;;28.67;4.32;;;12.60;99.90;;;;;;5023678;28;20226;-65
2022/05/14 01:57:45;;;;;;;21.40;4.05;;;12.60;99.90;;;;;;5024453;28;20084;-63
2022/05/14 02:00:13;;;;;;;23.58;3.80;;;12.60;99.90;;;;;;5007065;28;20320;-65
2022/05/14 02:02:39;;;;;;;23.40;4.43;;;12.60;99.90;;;;;;5007202;28;20022;-63
2022/05/14 02:05:05;;;;;;;21.00;4.05;;;12.60;99.90;;;;;;5007014;28;20085;-63
2022/05/14 02:07:31;;;;;;;28.30;4.93;;;12.60;99.90;;;;;;5023580;28;20272;-63
2022/05/14 02:09:56;;;;;;;24.88;3.70;;;12.50;99.90;;;;;;5024691;28;20018;-63
2022/05/14 02:12:22;;;;;;;26.15;3.95;;;12.50;99.90;;;;;;5006675;28;20367;-63
2022/05/14 02:14:48;;;;;;;28.50;4.50;;;12.40;99.90;;;;;;5024432;28;20090;-63
2022/05/14 02:17:14;;;;;;;28.65;3.90;;;12.40;99.90;;;;;;5023158;28;20209;-63
2022/05/14 02:19:40;;;;;;;34.05;4.72;;;12.30;99.90;;;;;;5006866;28;20022;-63
2022/05/14 02:22:06;;;;;;;27.67;4.00;;;12.30;99.90;;;;;;5023103;28;20248;-63
2022/05/14 02:24:33;;;;;;;27.77;4.68;;;12.30;99.90;;;;;;5024070;28;20060;-63
2022/05/14 02:26:59;;;;;;;29.08;4.45;;;12.30;99.90;;;;;;5022824;28;20026;-63
2022/05/14 02:29:25;;;;;;;23.90;4.03;;;12.20;99.90;;;;;;5024316;28;20057;-63
2022/05/14 02:31:51;;;;;;;24.30;3.97;;;12.20;99.90;;;;;;5023978;28;20010;-63
2022/05/14 02:34:17;;;;;;;28.92;4.35;;;12.20;99.90;;;;;;5023804;28;20028;-63
2022/05/14 02:36:43;;;;;;;23.13;4.47;;;12.20;99.90;;;;;;5023162;28;20024;-63
2022/05/14 02:39:09;;;;;;;34.40;4.75;;;12.20;99.90;;;;;;5023147;28;20049;-63
2022/05/14 02:41:35;;;;;;;26.48;4.63;;;12.20;99.90;;;;;;5023932;28;20021;-64
2022/05/14 02:44:00;;;;;;;28.65;4.68;;;12.10;99.90;;;;;;5023035;28;20320;-64
2022/05/14 02:46:27;;;;;;;20.92;4.72;;;12.20;99.90;;;;;;5022591;28;20022;-64
2022/05/14 02:48:52;;;;;;;36.45;4.78;;;12.20;99.90;;;;;;5006733;28;20053;-64
2022/05/14 02:51:18;;;;;;;22.65;3.70;;;12.30;99.90;;;;;;5023796;28;20093;-64
2022/05/14 02:53:44;;;;;;;27.25;4.40;;;12.30;99.90;;;;;;5022888;28;20244;-63
2022/05/14 02:56:09;;;;;;;26.98;4.70;;;12.30;99.90;;;;;;5022558;28;20033;-64
2022/05/14 03:01:21;;;;;;;20.88;3.97;;;12.30;99.90;;;;;;4995527;28;20021;-63
2022/05/14 03:03:46;;;;;;;23.88;4.25;;;12.30;99.90;;;;;;5022777;28;20049;-64
2022/05/14 03:06:13;;;;;;;30.27;4.10;;;12.30;99.90;;;;;;5023626;28;20092;-63
2022/05/14 03:08:38;;;;;;;32.22;4.75;;;12.30;99.90;;;;;;5006518;28;20033;-64
2022/05/14 03:11:04;;;;;;;25.60;4.40;;;12.20;99.90;;;;;;5022339;28;20042;-64
2022/05/14 03:13:30;;;;;;;26.60;5.32;;;12.20;99.90;;;;;;5023733;28;20026;-63
2022/05/14 03:15:56;;;;;;;25.80;4.80;;;12.10;99.90;;;;;;5023814;28;20072;-64
2022/05/14 03:18:22;;;;;;;24.25;3.90;;;12.10;99.90;;;;;;5022515;28;20034;-66
2022/05/14 03:20:48;;;;;;;27.75;4.65;;;12.20;99.90;;;;;;5023778;28;20021;-64
2022/05/14 03:23:15;;;;;;;27.80;3.80;;;12.10;99.90;;;;;;5022126;28;20093;-64
2022/05/14 03:25:40;;;;;;;24.92;4.35;;;12.20;99.90;;;;;;5023692;28;20197;-64
2022/05/14 03:28:06;;;;;;;25.20;4.82;;;12.20;99.90;;;;;;5023543;28;20033;-63
2022/05/14 03:30:32;;;;;;;18.25;4.05;;;12.20;99.90;;;;;;5023369;28;20048;-63
2022/05/14 03:32:58;;;;;;;23.35;4.28;;;12.20;99.90;;;;;;5023481;28;20021;-63
2022/05/14 03:35:24;;;;;;;31.08;5.25;;;12.20;99.90;;;;;;5022439;28;20141;-63
2022/05/14 03:37:50;;;;;;;29.77;4.70;;;12.20;99.90;;;;;;5022389;28;20030;-63
2022/05/14 03:40:16;;;;;;;28.48;3.95;;;12.30;99.90;;;;;;5023548;28;20089;-63
2022/05/14 03:42:42;;;;;;;23.52;4.18;;;12.30;99.90;;;;;;5022273;28;20248;-63
2022/05/14 03:45:09;;;;;;;23.95;4.13;;;12.40;99.90;;;;;;5023287;28;20355;-64
2022/05/14 03:47:35;;;;;;;24.10;4.40;;;12.40;99.90;;;;;;5022109;28;20051;-63
2022/05/14 03:50:01;;;;;;;24.27;4.28;;;12.40;99.90;;;;;;5022474;28;20237;-63
2022/05/14 03:52:26;;;;;;;24.90;4.75;;;12.40;99.90;;;;;;5022372;28;20018;-63
2022/05/14 03:54:52;;;;;;;23.40;4.40;;;12.50;99.90;;;;;;5022325;28;20132;-63
2022/05/14 03:57:18;;;;;;;25.90;4.07;;;12.50;99.90;;;;;;5021762;28;20022;-63
2022/05/14 03:59:44;;;;;;;27.85;4.72;;;12.50;99.90;;;;;;5023009;28;20025;-63
2022/05/14 04:02:10;;;;;;;23.58;4.13;;;12.50;99.90;;;;;;5005936;28;20025;-63
2022/05/14 04:04:36;;;;;;;28.83;4.20;;;12.60;99.90;;;;;;5025061;28;20081;-63
2022/05/14 04:07:01;;;;;;;27.83;4.32;;;12.60;99.90;;;;;;5025653;28;20018;-63
2022/05/14 04:09:27;;;;;;;26.80;4.38;;;12.60;99.90;;;;;;5025514;28;20221;-63
2022/05/14 04:11:53;;;;;;;26.90;4.82;;;12.60;99.90;;;;;;5025342;28;20032;-63
2022/05/14 04:14:20;;;;;;;20.00;4.15;;;12.60;99.90;;;;;;5025246;28;20025;-63
2022/05/14 04:16:46;;;;;;;20.10;3.80;;;12.70;99.90;;;;;;5026590;28;20072;-63
2022/05/14 04:19:11;;;;;;;29.23;4.53;;;12.70;99.90;;;;;;5009053;28;20050;-63
2022/05/14 04:21:38;;;;;;;29.23;4.60;;;12.60;99.90;;;;;;5025073;28;20029;-63
2022/05/14 04:24:04;;;;;;;19.98;4.25;;;12.60;99.90;;;;;;5024611;28;20089;-63
2022/05/14 04:26:30;;;;;;;22.83;4.38;;;12.60;99.90;;;;;;5026034;28;20141;-63
2022/05/14 04:28:56;;;;;;;24.75;4.20;;;12.60;99.90;;;;;;5008883;28;20034;-63
2022/05/14 04:31:22;;;;;;;24.13;4.38;;;12.60;99.90;;;;;;5025067;28;20028;-66
2022/05/14 04:33:48;;;;;;;32.88;4.18;;;12.60;99.90;;;;;;5026286;28;20358;-63
2022/05/14 04:36:14;;;;;;;29.63;4.60;;;12.60;99.90;;;;;;5025073;28;20026;-63
2022/05/14 04:38:40;;;;;;;25.38;4.05;;;12.60;99.90;;;;;;5025252;28;20080;-62
2022/05/14 04:41:06;;;;;;;24.60;4.35;;;12.60;99.90;;;;;;5026142;28;20025;-63
2022/05/14 04:43:33;;;;;;;31.85;4.38;;;12.60;99.90;;;;;;5024959;28;20185;-63
2022/05/14 04:45:59;;;;;;;26.23;3.97;;;12.70;99.90;;;;;;5025495;28;20335;-63
2022/05/14 04:48:25;;;;;;;28.27;4.55;;;12.60;99.90;;;;;;5024628;28;20060;-63
2022/05/14 04:50:50;;;;;;;19.33;4.00;;;12.60;99.90;;;;;;5025952;28;20025;-63
2022/05/14 04:53:16;;;;;;;25.25;4.40;;;12.60;99.90;;;;;;5025600;28;20032;-63
2022/05/14 04:55:43;;;;;;;24.33;4.28;;;12.60;99.90;;;;;;5025864;28;20025;-63
2022/05/14 04:58:09;;;;;;;27.95;4.30;;;12.60;99.90;;;;;;5025598;28;20066;-63
2022/05/14 05:00:36;;;;;;;27.73;4.90;;;12.60;99.90;;;;;;5024561;28;20022;-62
2022/05/14 05:03:19;;;;;;;25.38;4.43;;;12.70;99.90;;;;;;5025704;28;20036;-63
2022/05/14 05:05:54;;;;;;;24.27;4.80;;;12.70;99.90;;;;;;5025481;28;20301;-63
2022/05/14 05:08:22;;;;;;;26.52;3.95;;;12.70;99.90;;;;;;5024480;28;20021;-63
2022/05/14 05:10:47;;;;;;;27.08;4.50;;;12.70;99.90;;;;;;5024283;28;20067;-63
2022/05/14 05:13:16;;;;;;;35.15;4.72;;;12.70;99.90;;;;;;5008159;28;20026;-63
2022/05/14 05:15:42;;;;;;;20.42;3.72;;;12.70;99.90;;;;;;5024369;28;20052;-63
2022/05/14 05:18:09;;;;;;;23.00;4.20;;;12.80;99.90;;;;;;5007909;28;20212;-63
2022/05/14 05:20:36;;;;;;;24.33;4.45;;;12.80;99.90;;;;;;5025458;28;20028;-63
2022/05/14 05:23:03;;;;;;;25.92;4.13;;;12.90;99.90;;;;;;5024948;28;20030;-63
2022/05/14 05:25:29;;;;;;;22.38;4.45;;;12.90;99.90;;;;;;5022466;28;20017;-62
2022/05/14 05:27:55;;;;;;;39.50;4.53;;;12.90;99.90;;;;;;5025315;28;20037;-63
2022/05/14 05:30:21;;;;;;;21.17;4.95;;;13.00;99.90;;;;;;5024966;28;20197;-63
2022/05/14 05:32:46;;;;;;;25.55;4.68;;;13.10;99.90;;;;;;5024964;28;20257;-63
2022/05/14 05:35:13;;;;;;;24.17;3.88;;;13.20;99.90;;;;;;5024011;28;20018;-63
2022/05/14 05:37:39;;;;;;;31.40;4.47;;;13.20;99.90;;;;;;5007596;28;20049;-63
2022/05/14 05:40:05;;;;;;;27.02;4.22;;;13.20;99.90;;;;;;5025232;28;20017;-63
2022/05/14 05:42:32;;;;;;;19.08;4.10;;;13.30;99.90;;;;;;5024982;28;20033;-63
2022/05/14 05:44:58;;;;;;;17.65;4.28;;;13.30;99.90;;;;;;5023595;28;20022;-63
2022/05/14 05:47:24;;;;;;;22.42;4.25;;;13.30;99.90;;;;;;5024404;28;20301;-63
2022/05/14 05:49:50;;;;;;;24.23;4.53;;;13.30;99.90;;;;;;5023947;28;20029;-63
2022/05/14 05:52:16;;;;;;;21.13;4.68;;;13.40;99.90;;;;;;5024889;28;20044;-63
2022/05/14 05:57:33;;;;;;;27.58;4.18;;;13.50;99.90;;;;;;4996394;28;20104;-63
2022/05/14 05:59:59;;;;;;;24.70;3.88;;;13.50;99.90;;;;;;5024602;28;20026;-63
2022/05/14 06:02:25;;;;;;;20.50;4.25;;;13.50;99.90;;;;;;5023419;28;20068;-63
2022/05/14 06:04:51;;;;;;;23.33;4.45;;;13.60;99.90;;;;;;5007279;28;20030;-63
2022/05/14 06:07:17;;;;;;;19.95;4.88;;;13.60;99.90;;;;;;5023218;28;20025;-63
2022/05/14 06:09:43;;;;;;;23.38;4.40;;;13.70;99.90;;;;;;5024720;28;20033;-63
2022/05/14 06:12:09;;;;;;;25.63;4.43;;;13.70;99.90;;;;;;5024519;28;20025;-63
2022/05/14 06:14:35;;;;;;;17.48;3.50;;;13.80;99.90;;;;;;5024466;28;20033;-63
2022/05/14 06:17:01;;;;;;;22.67;4.78;;;13.90;99.90;;;;;;5023402;28;20094;-63
2022/05/14 06:19:26;;;;;;;22.55;5.00;;;14.10;99.90;;;;;;5024287;28;20025;-64
2022/05/14 06:21:52;;;;;;;29.52;4.40;;;14.10;99.90;;;;;;5024253;28;20220;-63
2022/05/14 06:24:17;;;;;;;23.33;3.72;;;14.20;99.90;;;;;;5024353;28;20025;-63
2022/05/14 06:26:43;;;;;;;25.15;4.32;;;14.20;99.90;;;;;;5004356;28;20057;-64
2022/05/14 06:29:09;;;;;;;28.02;4.80;;;14.30;99.90;;;;;;5024137;28;20240;-64
2022/05/14 06:31:36;;;;;;;25.08;4.50;;;14.40;99.90;;;;;;5023896;28;20081;-64
2022/05/14 06:34:02;;;;;;;24.92;4.90;;;14.50;99.90;;;;;;5024132;28;20025;-64
2022/05/14 06:36:28;;;;;;;28.70;5.55;;;14.60;99.90;;;;;;5023854;28;20190;-64
2022/05/14 06:38:54;;;;;;;24.60;5.35;;;14.70;99.90;;;;;;5024103;28;20065;-64
2022/05/14 06:41:20;;;;;;;33.72;5.70;;;14.70;99.90;;;;;;5022885;28;20220;-63
2022/05/14 06:43:45;;;;;;;30.77;5.50;;;14.80;99.90;;;;;;5023893;28;20068;-65
2022/05/14 06:46:12;;;;;;;25.15;5.70;;;14.80;99.90;;;;;;5023863;28;20101;-63
2022/05/14 06:48:38;;;;;;;24.25;5.38;;;15.00;99.90;;;;;;5006400;28;20021;-64
2022/05/14 06:51:08;;;;;;;23.73;5.63;;;15.10;99.90;;;;;;5024059;28;20018;-63
2022/05/14 06:53:37;;;;;;;28.88;6.82;;;15.20;99.90;;;;;;5022868;28;20073;-63
2022/05/14 06:56:03;;;;;;;26.70;7.95;;;15.20;99.90;;;;;;5023851;28;20022;-64
2022/05/14 06:58:33;;;;;;;20.85;5.63;;;15.20;99.80;;;;;;5023704;28;20101;-64
2022/05/14 07:00:59;;;;;;;24.45;5.88;;;15.20;99.90;;;;;;5022640;28;20021;-65
2022/05/14 07:08:58;;;;;;;27.25;7.05;;;15.20;99.90;;;;;;5022785;28;20018;-62
2022/05/14 07:11:24;;;;;;;24.45;7.03;;;15.20;99.90;;;;;;5005862;28;20136;-62
2022/05/14 07:13:51;;;;;;;27.63;7.63;;;15.00;99.90;;;;;;5023779;28;20030;-63
2022/05/14 07:16:17;;;;;;;28.85;8.15;;;15.00;99.90;;;;;;5023795;28;20309;-64
2022/05/14 07:18:42;;;;;;;29.15;8.32;;;15.00;99.90;;;;;;5005721;28;20092;-64
2022/05/14 07:21:08;;;;;;;36.47;9.18;;;15.10;99.90;;;;;;5023415;28;20081;-64
2022/05/14 07:23:34;;;;;;;26.52;8.43;;;15.10;99.90;;;;;;5023580;28;20022;-64
2022/05/14 07:26:05;;;;;;;25.20;8.52;;;15.30;99.70;;;;;;5021710;28;20028;-64
2022/05/14 07:28:31;;;;;;;23.00;8.25;;;15.40;99.40;;;;;;5022723;28;20037;-64
2022/05/14 07:30:57;;;;;;;27.52;7.70;;;15.30;99.30;;;;;;5022092;28;20076;-64
2022/05/14 07:33:22;;;;;;;30.83;8.30;;;15.40;99.40;;;;;;5023502;28;20030;-64
2022/05/14 07:35:48;;;;;;;31.55;8.20;;;15.40;99.40;;;;;;5022406;28;20101;-64
2022/05/14 07:38:14;;;;;;;30.52;7.13;;;15.40;99.30;;;;;;5025086;28;20100;-64
2022/05/14 07:40:40;;;;;;;22.00;6.85;;;15.40;99.50;;;;;;5026956;28;20025;-64
2022/05/14 07:43:15;;;;;;;25.80;7.13;;;15.40;99.40;;;;;;5026993;28;20328;-64
2022/05/14 07:45:44;;;;;;;21.92;7.40;;;15.40;99.10;;;;;;5026160;28;20018;-65
2022/05/14 07:48:16;;;;;;;34.15;8.38;;;15.30;99.00;;;;;;5009751;28;20032;-64
2022/05/14 07:50:42;;;;;;;23.65;8.13;;;15.20;98.90;;;;;;5025824;28;20280;-64
2022/05/14 07:53:08;;;;;;;22.13;8.63;;;15.20;99.00;;;;;;5026042;28;20309;-64
2022/05/14 07:55:34;;;;;;;27.52;9.20;;;15.30;98.40;;;;;;5026906;28;20033;-64
2022/05/14 07:58:00;;;;;;;24.25;8.25;;;15.30;98.20;;;;;;5025735;28;20091;-64
2022/05/14 08:00:26;;;;;;;19.38;8.32;;;15.30;98.20;;;;;;5025606;28;20005;-64
2022/05/14 08:02:52;;;;;;;25.88;8.68;;;15.40;97.40;;;;;;5025341;28;20022;-64
2022/05/14 08:05:20;;;;;;;27.13;8.10;;;15.60;97.50;;;;;;5009233;28;20025;-63
2022/05/14 08:07:46;;;;;;;22.45;8.20;;;15.60;97.10;;;;;;5027209;28;20022;-63
2022/05/14 08:10:13;;;;;;;22.15;7.53;;;15.70;96.50;;;;;;5025395;28;20025;-63
2022/05/14 08:12:44;;;;;;;30.00;9.45;;;15.80;96.40;;;;;;5025612;28;20033;-63
2022/05/14 08:15:12;;;;;;;15.00;7.53;;;15.90;96.10;;;;;;5025908;28;20124;-65
2022/05/14 08:17:38;;;;;;;23.35;8.75;;;16.10;96.20;;;;;;5026563;28;20303;-64
2022/05/14 08:20:05;;;;;;;23.70;9.05;;;16.30;95.80;;;;;;5026354;28;20248;-64
2022/05/14 08:25:17;;;;;;;24.55;8.93;;;16.60;94.60;;;;;;5025298;28;20014;-64
2022/05/14 08:27:46;;;;;;;25.27;7.03;;;16.70;94.40;;;;;;5007456;28;20102;-66
2022/05/14 08:30:20;;;;;;;32.00;8.07;;;16.70;94.20;;;;;;5024991;28;20150;-64
2022/05/14 08:32:46;;;;;;;21.60;7.38;;;16.60;94.30;;;;;;5026081;28;20033;-64
2022/05/14 08:35:13;;;;;;;18.75;6.60;;;16.60;94.40;;;;;;5025199;28;20200;-64
2022/05/14 08:37:39;;;;;;;18.52;6.13;;;16.60;93.80;;;;;;5008902;28;20260;-64
2022/05/14 08:40:07;;;;;;;22.23;5.88;;;16.50;93.60;;;;;;5024990;28;20073;-64
2022/05/14 08:42:34;;;;;;;25.35;5.90;;;16.60;93.70;;;;;;5026264;28;20025;-64
2022/05/14 08:45:00;;;;;;;19.33;4.80;;;16.60;93.10;;;;;;5024908;28;20045;-65
2022/05/14 08:47:30;;;;;;;19.75;4.82;;;16.60;93.20;;;;;;5025768;28;20021;-65
2022/05/14 08:49:57;;;;;;;20.08;4.85;;;16.70;93.20;;;;;;5024258;28;20208;-65
2022/05/14 08:52:25;;;;;;;19.98;5.18;;;16.80;93.30;;;;;;5025773;28;20033;-64
2022/05/14 08:54:58;;;;;;;15.10;4.35;;;17.00;93.10;;;;;;5025930;28;20085;-65
2022/05/14 08:57:50;;;;;;;16.92;4.07;;;17.30;92.90;;;;;;5024783;28;20053;-66
2022/05/14 09:00:16;;;;;;;17.95;3.70;;;17.40;92.60;;;;;;5010541;28;20032;-64
2022/05/14 09:02:49;;;;;;;16.48;3.47;;;17.20;92.70;;;;;;5024698;28;20025;-64
2022/05/14 09:05:22;;;;;;;14.40;3.63;;;17.00;93.20;;;;;;5024664;28;20301;-64
2022/05/14 09:07:50;;;;;;;18.17;3.75;;;16.80;93.40;;;;;;5024444;28;20297;-63
2022/05/14 09:10:35;;;;;;;15.63;3.60;;;16.80;93.20;;;;;;5025640;28;20100;-66
2022/05/14 09:13:21;;;;;;;18.52;3.35;;;16.80;93.00;;;;;;5025635;28;20021;-64
2022/05/14 09:15:59;;;;;;;16.80;3.35;;;16.90;93.00;;;;;;5008064;28;20061;-65
2022/05/14 09:18:30;;;;;;;12.50;3.38;;;17.00;92.50;;;;;;5024501;28;20029;-65
2022/05/14 09:21:02;;;;;;;25.88;4.00;;;17.00;91.90;;;;;;5025006;28;20022;-65
2022/05/14 09:23:39;;;;;;;20.70;4.15;;;17.10;91.60;;;;;;5023787;28;20072;-64
2022/05/14 09:26:18;;;;;;;17.73;3.75;;;17.20;91.40;;;;;;5025393;28;20028;-65
2022/05/14 09:28:48;;;;;;;17.88;3.53;;;17.10;91.40;;;;;;5023454;28;20018;-65
2022/05/14 09:31:33;;;;;;;16.67;3.10;;;16.90;91.70;;;;;;5023739;28;20029;-64
2022/05/14 09:34:16;;;;;;;24.63;4.13;;;16.70;92.10;;;;;;5007747;28;20037;-64
2022/05/14 09:36:44;;;;;;;19.58;3.25;;;16.70;92.10;;;;;;5024233;28;20022;-65
2022/05/14 09:39:15;;;;;;;16.70;3.33;;;16.80;91.80;;;;;;5024031;28;20022;-64
2022/05/14 09:41:45;;;;;;;19.83;3.47;;;16.80;92.00;;;;;;5023718;28;20037;-64
2022/05/14 09:44:35;;;;;;;13.73;2.90;;;17.10;92.20;;;;;;5023620;28;20028;-64
2022/05/14 09:47:14;;;;;;;24.58;3.70;;;17.40;91.70;;;;;;5023943;28;20182;-65
2022/05/14 09:49:42;;;;;;;13.13;3.58;;;17.40;91.40;;;;;;5023965;28;20025;-65
2022/05/14 09:52:11;;;;;;;14.15;3.38;;;17.30;91.40;;;;;;5023501;28;20022;-65
2022/05/14 09:54:50;;;;;;;15.75;3.30;;;17.20;91.10;;;;;;5023382;28;20420;-64
2022/05/14 09:57:35;;;;;;;14.95;3.10;;;17.10;91.50;;;;;;5024862;28;20075;-64
2022/05/14 10:00:28;;;;;;;13.68;2.97;;;17.00;91.60;;;;;;5024507;28;20029;-66
2022/05/14 10:03:06;;;;;;;14.90;3.45;;;17.00;91.20;;;;;;4993528;28;20021;-65
2022/05/14 10:05:52;;;;;;;16.10;3.28;;;17.10;90.90;;;;;;5024733;28;20014;-65
2022/05/14 10:08:40;;;;;;;12.68;3.20;;;17.30;90.70;;;;;;5024542;28;20026;-64
2022/05/14 10:11:15;;;;;;;15.18;3.50;;;17.50;90.70;;;;;;5023549;28;20014;-64
2022/05/14 10:14:13;;;;;;;14.30;3.45;;;17.60;90.40;;;;;;5024416;28;20060;-65
2022/05/14 10:17:19;;;;;;;18.65;3.75;;;17.70;90.00;;;;;;5023415;28;20248;-65
2022/05/14 10:20:24;;;;;;;16.92;3.30;;;17.70;89.20;;;;;;5023503;28;20304;-65
2022/05/14 10:26:46;;;;;;;17.30;3.70;;;18.20;88.30;;;;;;5012598;28;20017;-66
2022/05/14 10:29:46;;;;;;;18.08;3.20;;;18.50;87.10;;;;;;5021801;28;20022;-66
2022/05/14 10:32:16;;;;;;;13.68;3.20;;;18.70;86.80;;;;;;5022853;28;20061;-67
2022/05/14 10:35:24;;;;;;;16.65;3.90;;;18.70;85.80;;;;;;5024203;28;20030;-67
2022/05/14 10:37:53;;;;;;;20.20;4.05;;;18.50;86.70;;;;;;5023453;28;20032;-66
2022/05/14 10:40:24;;;;;;;13.32;2.72;;;18.50;86.30;;;;;;5006534;28;20041;-65
2022/05/14 10:43:03;;;;;;;16.98;3.03;;;18.30;86.80;;;;;;5023015;28;20052;-65
2022/05/14 10:45:41;;;;;;;12.60;2.70;;;18.10;87.80;;;;;;5023999;28;20029;-64
2022/05/14 10:48:42;;;;;;;18.33;4.20;;;18.00;88.30;;;;;;5006703;28;20271;-65
2022/05/14 10:51:12;;;;;;;15.43;3.10;;;18.00;89.70;;;;;;5023366;28;20044;-64
2022/05/14 10:53:40;;;;;;;15.85;3.35;;;18.10;89.70;;;;;;5023620;28;20025;-65
2022/05/14 10:56:37;;;;;;;15.10;3.38;;;18.10;89.70;;;;;;5022954;28;20415;-65
2022/05/14 10:59:10;;;;;;;13.75;2.90;;;18.00;89.30;;;;;;5022597;28;20240;-65
2022/05/14 11:02:03;;;;;;;10.75;2.50;;;17.90;89.30;;;;;;5022363;28;20029;-65
2022/05/14 11:04:42;;;;;;;12.75;2.97;;;17.80;89.50;;;;;;5005975;28;20217;-65
2022/05/14 11:07:42;;;;;;;13.23;3.40;;;17.80;89.90;;;;;;5004036;28;20029;-65
2022/05/14 11:10:30;;;;;;;9.65;2.80;;;17.80;89.60;;;;;;5003186;28;20022;-65
2022/05/14 11:13:25;;;;;;;14.07;2.58;;;17.90;89.10;;;;;;5006440;28;20368;-66
2022/05/14 11:16:10;;;;;;;12.45;2.75;;;17.90;87.80;;;;;;5007305;28;20028;-66
2022/05/14 11:18:52;;;;;;;12.07;2.95;;;17.90;88.20;;;;;;5007182;28;20026;-65
2022/05/14 11:21:18;;;;;;;;;;;18.00;87.90;;;;;;5008476;28;20265;-65
2022/05/14 11:23:56;;;;;;;14.90;2.97;;;18.00;87.10;;;;;;5006661;28;19909;-64
2022/05/14 11:26:22;;;;;;;11.82;3.05;;;18.00;87.20;;;;;;5007882;28;20033;-64
2022/05/14 11:29:05;;;;;;;9.30;2.47;;;18.20;86.50;;;;;;4989512;28;20050;-64
2022/05/14 11:31:38;;;;;;;19.10;3.33;;;18.20;86.00;;;;;;5006658;28;20069;-65
2022/05/14 11:34:17;;;;;;;12.93;2.75;;;18.30;85.90;;;;;;5022952;28;20018;-65
2022/05/14 11:36:58;;;;;;;15.30;3.13;;;18.40;85.40;;;;;;5006425;28;20077;-65
2022/05/14 11:39:28;;;;;;;18.70;3.13;;;18.70;85.20;;;;;;5006669;28;20034;-65
2022/05/14 11:42:07;;;;;;;10.50;2.75;;;19.00;85.60;;;;;;4990808;28;20022;-64
2022/05/14 11:44:44;;;;;;;11.73;2.80;;;19.10;84.60;;;;;;5007515;28;20014;-64
2022/05/14 11:47:47;;;;;;;12.77;2.55;;;19.20;84.60;;;;;;5016890;28;20033;-64
2022/05/14 11:50:15;;;;;;;21.45;2.70;;;19.10;84.30;;;;;;5026110;28;20021;-65
2022/05/14 11:53:05;;;;;;;10.75;2.50;;;19.00;83.90;;;;;;5025905;28;20068;-64
2022/05/14 11:55:44;;;;;;;11.88;2.78;;;18.90;83.10;;;;;;5026281;28;20028;-64
2022/05/14 11:58:24;;;;;;;9.98;2.65;;;18.80;83.20;;;;;;5009339;28;20053;-66
2022/05/14 12:00:52;;;;;;;9.63;2.65;;;18.70;83.40;;;;;;5025659;28;20029;-67
2022/05/14 12:03:28;;;;;;;11.27;2.53;;;18.80;83.90;;;;;;5009193;28;20342;-65
2022/05/14 12:06:33;;;;;;;11.05;2.40;;;19.00;84.40;;;;;;5015864;28;20022;-65
2022/05/14 12:09:24;;;;;;;13.73;2.95;;;19.30;83.40;;;;;;5006262;28;20022;-65
2022/05/14 12:12:04;;;;;;;8.03;2.07;;;19.50;82.10;;;;;;5006032;28;20025;-65
2022/05/14 12:14:32;;;;;;;11.65;2.47;;;19.40;81.90;;;;;;5005908;28;20342;-65
2022/05/14 12:17:01;;;;;;;11.43;2.70;;;19.40;82.30;;;;;;5006172;28;20022;-65
2022/05/14 12:19:30;;;;;;;13.25;2.42;;;19.40;81.90;;;;;;5005614;28;20376;-65
2022/05/14 12:22:02;;;;;;;11.52;2.70;;;19.50;81.80;;;;;;5006914;28;20037;-66
2022/05/14 12:24:32;;;;;;;11.40;2.50;;;19.60;82.30;;;;;;5004319;28;20018;-65
2022/05/14 12:26:58;;;;;;;13.43;2.67;;;19.80;83.20;;;;;;5007053;28;20031;-65
2022/05/14 12:29:36;;;;;;;11.05;3.63;;;20.00;82.40;;;;;;5006073;28;20268;-65
2022/05/14 12:34:57;;;;;;;15.05;2.80;;;20.10;81.40;;;;;;5005668;28;20018;-64
2022/05/14 12:37:41;;;;;;;14.13;3.53;;;19.80;81.80;;;;;;5005528;28;20026;-65
2022/05/14 12:40:09;;;;;;;14.95;3.28;;;19.40;82.30;;;;;;5006688;28;20117;-65
2022/05/14 12:42:39;;;;;;;13.02;2.53;;;19.30;82.70;;;;;;5005503;28;20029;-65
2022/05/14 12:45:07;;;;;;;13.25;3.28;;;19.40;82.90;;;;;;5004938;28;20203;-65
2022/05/14 12:47:34;;;;;;;9.32;2.90;;;19.60;82.30;;;;;;5018573;28;20026;-65
2022/05/14 12:50:01;;;;;;;10.30;2.67;;;19.70;81.70;;;;;;5026070;28;20216;-65
2022/05/14 12:52:32;;;;;;;7.57;2.85;;;19.90;81.60;;;;;;5024888;28;20026;-65
2022/05/14 12:55:15;;;;;;;12.83;2.70;;;19.80;81.50;;;;;;5024877;28;20320;-65
2022/05/14 12:57:43;;;;;;;10.23;2.67;;;19.90;81.00;;;;;;5025844;28;20283;-66
2022/05/14 13:00:12;;;;;;;11.68;2.40;;;19.90;80.80;;;;;;5025732;28;20294;-66
2022/05/14 13:02:48;;;;;;;14.52;2.72;;;19.90;81.20;;;;;;5008474;28;20033;-64
2022/05/14 13:05:19;;;;;;;10.25;3.05;;;20.20;80.80;;;;;;5025634;28;20092;-65
2022/05/14 13:07:50;;;;;;;;;;;20.30;79.90;;;;;;5025169;28;20029;-65
2022/05/14 13:10:20;;;;;;;11.63;2.60;;;20.40;79.80;;;;;;5025675;28;19905;-64
2022/05/14 13:12:57;;;;;;;10.02;2.45;;;20.70;79.20;;;;;;5024550;28;20089;-65
2022/05/14 13:15:44;;;;;;;10.25;2.67;;;20.70;78.70;;;;;;5008412;28;20027;-64
2022/05/14 13:18:23;;;;;;;18.05;2.75;;;20.60;78.70;;;;;;5024486;28;20306;-65